Time;durP1;ratioP1;P1;durP2;ratioP2;P2;SDS_P1;SDS_P2;PMS_P1;PMS_P2;Temp;Humidity;BMP_temperature;BMP_pressure;BME280_temperature;BME280_humidity;BME280_pressure;Samples;Min_cycle;Max_cycle;Signal;HPM_P1;HPM_P2
2023/11/07 00:00:15;;;;;;;1.02;0.35;;;;;;;5.25;nan;95650.06;2090182;28;20052;-59
2023/11/07 00:01:16;;;;;;;2.05;0.60;;;;;;;5.22;nan;95655.31;2090611;28;20052;-59
2023/11/07 00:02:19;;;;;;;0.90;0.40;;;;;;;5.19;nan;95651.13;2090632;28;20053;-57
2023/11/07 00:03:20;;;;;;;0.88;0.40;;;;;;;5.20;nan;95654.53;2089603;28;20480;-57
2023/11/07 00:04:21;;;;;;;1.83;0.60;;;;;;;5.19;nan;95653.69;2089485;28;20052;-58
2023/11/07 00:05:22;;;;;;;0.30;0.20;;;;;;;5.26;nan;95651.75;2090257;28;20492;-58
2023/11/07 00:06:23;;;;;;;0.68;0.30;;;;;;;5.20;nan;95654.53;2089917;28;20044;-58
2023/11/07 00:07:25;;;;;;;1.10;0.40;;;;;;;5.17;nan;95650.31;2090284;28;20072;-59
2023/11/07 00:08:26;;;;;;;1.48;0.50;;;;;;;5.18;nan;95658.88;2090341;28;20044;-60
2023/11/07 00:09:27;;;;;;;1.15;0.40;;;;;;;5.19;nan;95658.00;2089848;28;20056;-60
2023/11/07 00:10:29;;;;;;;4.50;0.40;;;;;;;5.12;nan;95666.78;2090390;28;20473;-60
2023/11/07 00:11:30;;;;;;;1.08;0.30;;;;;;;5.05;nan;95661.84;2090132;28;20049;-59
2023/11/07 00:12:31;;;;;;;1.77;0.50;;;;;;;5.03;nan;95663.63;2089803;28;20397;-58
2023/11/07 00:13:32;;;;;;;0.65;0.30;;;;;;;5.01;nan;95660.25;2090560;28;20040;-59
2023/11/07 00:14:33;;;;;;;1.00;0.50;;;;;;;5.05;nan;95655.84;2090457;28;20044;-60
2023/11/07 00:15:34;;;;;;;0.77;0.30;;;;;;;5.12;nan;95659.06;2090127;28;20045;-57
2023/11/07 00:16:36;;;;;;;1.42;0.40;;;;;;;5.05;nan;95659.28;2090041;28;20059;-58
2023/11/07 00:17:37;;;;;;;0.88;0.40;;;;;;;5.05;nan;95668.69;2089978;28;20045;-60
2023/11/07 00:18:39;;;;;;;0.68;0.35;;;;;;;5.04;nan;95665.28;2090080;28;20033;-58
2023/11/07 00:19:40;;;;;;;1.48;0.50;;;;;;;5.03;nan;95665.34;2089959;28;20049;-59
2023/11/07 00:20:42;;;;;;;3.72;0.32;;;;;;;5.01;nan;95670.53;2089901;28;20048;-59
2023/11/07 00:21:43;;;;;;;0.50;0.40;;;;;;;5.05;nan;95673.84;2090094;28;20052;-59
2023/11/07 00:22:44;;;;;;;1.10;0.47;;;;;;;5.04;nan;95669.59;2089951;28;20049;-60
2023/11/07 00:23:45;;;;;;;0.40;0.20;;;;;;;5.06;nan;95668.66;2090449;28;20060;-58
2023/11/07 00:24:47;;;;;;;0.50;0.30;;;;;;;5.03;nan;95679.06;2089778;28;20055;-58
2023/11/07 00:25:48;;;;;;;1.23;0.40;;;;;;;5.04;nan;95672.19;2090058;28;20060;-58
2023/11/07 00:26:50;;;;;;;2.22;0.52;;;;;;;4.99;nan;95668.91;2090224;28;20465;-59
2023/11/07 00:27:51;;;;;;;0.63;0.30;;;;;;;4.95;nan;95675.88;2089974;28;20060;-61
2023/11/07 00:28:52;;;;;;;0.98;0.30;;;;;;;4.92;nan;95677.69;2090190;28;20041;-60
2023/11/07 00:29:53;;;;;;;1.25;0.40;;;;;;;4.86;nan;95671.00;2090297;28;20056;-57
2023/11/07 00:30:54;;;;;;;1.05;0.60;;;;;;;4.87;nan;95672.69;2089904;28;20059;-60
2023/11/07 00:31:55;;;;;;;0.60;0.32;;;;;;;4.89;nan;95675.22;2090874;28;20377;-57
2023/11/07 00:32:56;;;;;;;1.00;0.40;;;;;;;4.82;nan;95677.13;2091189;28;20048;-58
2023/11/07 00:33:58;;;;;;;1.88;0.40;;;;;;;4.82;nan;95674.56;2090919;28;20048;-60
2023/11/07 00:34:59;;;;;;;0.80;0.30;;;;;;;4.89;nan;95676.03;2091415;28;20059;-59
2023/11/07 00:36:00;;;;;;;1.20;0.55;;;;;;;4.90;nan;95672.59;2091217;28;20044;-60
2023/11/07 00:37:01;;;;;;;0.63;0.25;;;;;;;4.91;nan;95669.13;2091791;28;20051;-59
2023/11/07 00:38:04;;;;;;;0.63;0.30;;;;;;;5.02;nan;95679.09;2092096;28;20508;-59
2023/11/07 00:39:06;;;;;;;0.50;0.30;;;;;;;4.98;nan;95675.78;2091703;28;20044;-59
2023/11/07 00:40:09;;;;;;;0.90;0.30;;;;;;;5.06;nan;95673.81;2091681;28;20410;-59
2023/11/07 00:41:13;;;;;;;0.43;0.28;;;;;;;5.10;nan;95674.56;2091651;28;20048;-60
2023/11/07 00:42:14;;;;;;;1.88;0.30;;;;;;;5.09;nan;95673.72;2091891;28;20057;-59
2023/11/07 00:43:15;;;;;;;2.08;0.55;;;;;;;5.08;nan;95674.63;2091668;28;20064;-60
2023/11/07 00:44:18;;;;;;;1.42;0.50;;;;;;;5.07;nan;95682.38;2091434;28;20061;-60
2023/11/07 00:45:19;;;;;;;1.02;0.50;;;;;;;5.18;nan;95676.88;2091595;28;20048;-59
2023/11/07 00:46:20;;;;;;;0.85;0.40;;;;;;;5.18;nan;95677.72;2091753;28;20053;-59
2023/11/07 00:47:21;;;;;;;0.80;0.30;;;;;;;5.22;nan;95673.34;2091650;28;20048;-60
2023/11/07 00:48:22;;;;;;;3.45;0.60;;;;;;;5.18;nan;95672.59;2091232;28;20068;-60
2023/11/07 00:49:23;;;;;;;2.10;0.30;;;;;;;5.15;nan;95672.69;2090738;28;20061;-59
2023/11/07 00:50:25;;;;;;;1.75;0.40;;;;;;;5.12;nan;95669.38;2091701;28;20056;-59
2023/11/07 00:51:26;;;;;;;0.52;0.28;;;;;;;5.13;nan;95668.47;2092257;28;20476;-59
2023/11/07 00:52:28;;;;;;;0.98;0.40;;;;;;;5.04;nan;95669.59;2091665;28;20055;-59
2023/11/07 00:53:29;;;;;;;0.73;0.40;;;;;;;5.06;nan;95678.97;2091673;28;20053;-58
2023/11/07 00:54:30;;;;;;;0.40;0.30;;;;;;;5.19;nan;95676.03;2091926;28;20511;-59
2023/11/07 00:55:31;;;;;;;0.60;0.30;;;;;;;5.16;nan;95683.81;2091630;28;20041;-59
2023/11/07 00:56:32;;;;;;;2.78;0.47;;;;;;;5.24;nan;95679.28;2091458;28;20037;-59
2023/11/07 00:57:33;;;;;;;0.43;0.20;;;;;;;5.25;nan;95683.53;2091070;28;20060;-59
2023/11/07 00:58:34;;;;;;;2.50;0.32;;;;;;;5.19;nan;95688.91;2091429;28;20048;-60
2023/11/07 00:59:35;;;;;;;1.60;0.82;;;;;;;5.14;nan;95688.19;2091130;28;20060;-59
2023/11/07 01:00:36;;;;;;;1.42;0.13;;;;;;;5.14;nan;95680.47;2090922;28;20396;-60
2023/11/07 01:01:37;;;;;;;0.85;0.30;;;;;;;5.11;nan;95686.56;2091223;28;20053;-60
2023/11/07 01:02:39;;;;;;;0.82;0.30;;;;;;;5.17;nan;95691.50;2090809;28;20068;-59
2023/11/07 01:03:40;;;;;;;1.40;0.50;;;;;;;5.18;nan;95693.19;2091218;28;20045;-59
2023/11/07 01:04:41;;;;;;;0.30;0.20;;;;;;;5.17;nan;95688.94;2082828;28;20050;-59
2023/11/07 01:05:43;;;;;;;0.95;0.40;;;;;;;5.15;nan;95695.00;2082766;28;20112;-59
2023/11/07 01:06:44;;;;;;;0.55;0.20;;;;;;;5.13;nan;95695.03;2091226;28;20056;-59
2023/11/07 01:07:45;;;;;;;1.95;0.60;;;;;;;5.15;nan;95688.13;2091847;28;20462;-60
2023/11/07 01:08:46;;;;;;;1.17;0.50;;;;;;;5.14;nan;95686.44;2091200;28;20060;-60
2023/11/07 01:09:47;;;;;;;0.80;0.38;;;;;;;5.18;nan;95698.31;2090779;28;20049;-59
2023/11/07 01:10:48;;;;;;;0.47;0.30;;;;;;;5.17;nan;95694.06;2090976;28;20048;-59
2023/11/07 01:11:50;;;;;;;1.25;0.35;;;;;;;5.09;nan;95685.75;2091489;28;20051;-60
2023/11/07 01:12:52;;;;;;;0.77;0.30;;;;;;;5.05;nan;95681.56;2091655;28;20381;-59
2023/11/07 01:13:53;;;;;;;0.85;0.22;;;;;;;5.04;nan;95682.47;2091376;28;20049;-59
2023/11/07 01:14:55;;;;;;;0.40;0.30;;;;;;;5.04;nan;95685.88;2091301;28;20417;-58
2023/11/07 01:15:56;;;;;;;0.43;0.20;;;;;;;5.03;nan;95691.09;2090825;28;20048;-59
2023/11/07 01:16:57;;;;;;;0.25;0.20;;;;;;;5.06;nan;95691.00;2082494;28;20049;-59
2023/11/07 01:17:58;;;;;;;1.35;0.50;;;;;;;5.03;nan;95689.34;2090855;28;20057;-59
2023/11/07 01:18:59;;;;;;;0.57;0.20;;;;;;;5.12;nan;95693.38;2090860;28;20044;-58
2023/11/07 01:20:01;;;;;;;1.52;0.30;;;;;;;5.11;nan;95688.28;2099209;28;20060;-59
2023/11/07 01:21:02;;;;;;;0.60;0.20;;;;;;;5.09;nan;95685.75;2099130;28;20040;-59
2023/11/07 01:22:04;;;;;;;0.43;0.25;;;;;;;5.02;nan;95691.97;2090954;28;20092;-59
2023/11/07 01:23:05;;;;;;;0.20;0.20;;;;;;;5.08;nan;95687.50;2090510;28;20056;-60
2023/11/07 01:24:06;;;;;;;1.80;0.30;;;;;;;5.08;nan;95686.66;2090893;28;20057;-60
2023/11/07 01:25:09;;;;;;;0.90;0.30;;;;;;;5.09;nan;95694.31;2090792;28;20048;-60
2023/11/07 01:26:10;;;;;;;0.20;0.10;;;;;;;5.01;nan;95683.41;2090807;28;20431;-60
2023/11/07 01:27:12;;;;;;;1.00;0.30;;;;;;;5.08;nan;95687.50;2090760;28;20036;-59
2023/11/07 01:28:13;;;;;;;0.20;0.10;;;;;;;5.11;nan;95690.88;2091202;28;20064;-59
2023/11/07 01:29:15;;;;;;;1.23;0.30;;;;;;;5.05;nan;95697.88;2091299;28;20041;-59
2023/11/07 01:30:16;;;;;;;1.05;0.30;;;;;;;5.04;nan;95692.75;2091454;28;20049;-60
2023/11/07 01:31:17;;;;;;;2.08;0.22;;;;;;;5.00;nan;95694.59;2090867;28;20048;-60
2023/11/07 01:32:19;;;;;;;0.95;0.35;;;;;;;4.92;nan;95691.41;2090673;28;20381;-59
2023/11/07 01:33:20;;;;;;;0.38;0.30;;;;;;;4.92;nan;95698.25;2091411;28;20053;-59
2023/11/07 01:34:21;;;;;;;0.93;0.30;;;;;;;4.85;nan;95680.44;2091392;28;20052;-60
2023/11/07 01:35:23;;;;;;;1.05;0.40;;;;;;;4.78;nan;95684.06;2091140;28;20057;-59
2023/11/07 01:36:24;;;;;;;1.42;0.50;;;;;;;4.77;nan;95686.72;2091354;28;20041;-59
2023/11/07 01:37:26;;;;;;;1.58;0.30;;;;;;;4.77;nan;95686.72;2091073;28;20052;-60
2023/11/07 01:38:28;;;;;;;0.57;0.32;;;;;;;4.68;nan;95692.97;2091320;28;20057;-60
2023/11/07 01:39:29;;;;;;;0.95;0.55;;;;;;;4.62;nan;95688.84;2091307;28;20053;-59
2023/11/07 01:40:30;;;;;;;1.48;0.40;;;;;;;4.59;nan;95686.34;2090883;28;20045;-59
2023/11/07 01:41:33;;;;;;;0.50;0.40;;;;;;;4.53;nan;95683.97;2090444;28;20048;-59
2023/11/07 01:42:46;;;;;;;1.17;0.45;;;;;;;4.45;nan;95674.78;2090319;28;20044;-58
2023/11/07 01:43:47;;;;;;;0.28;0.28;;;;;;;4.46;nan;95677.28;2083361;28;20054;-58
2023/11/07 01:44:49;;;;;;;0.70;0.30;;;;;;;4.42;nan;95671.41;2090346;28;20059;-59
2023/11/07 01:45:50;;;;;;;1.65;0.30;;;;;;;4.38;nan;95680.09;2091270;28;20503;-60
2023/11/07 01:46:51;;;;;;;3.05;0.73;;;;;;;4.35;nan;95682.75;2090417;28;20057;-60
2023/11/07 01:47:53;;;;;;;2.38;0.40;;;;;;;4.32;nan;95680.25;2090482;28;20447;-60
2023/11/07 01:48:54;;;;;;;4.18;0.40;;;;;;;4.32;nan;95674.28;2090839;28;20056;-60
2023/11/07 01:49:56;;;;;;;2.00;0.70;;;;;;;4.30;nan;95683.75;2082293;28;20049;-58
2023/11/07 01:50:57;;;;;;;0.80;0.47;;;;;;;4.24;nan;95682.19;2090731;28;20501;-57
2023/11/07 01:51:58;;;;;;;1.58;0.43;;;;;;;4.23;nan;95689.97;2090280;28;20049;-58
2023/11/07 01:52:59;;;;;;;1.67;0.60;;;;;;;4.18;nan;95677.22;2081573;28;20432;-58
2023/11/07 01:54:00;;;;;;;0.95;0.60;;;;;;;4.19;nan;95684.88;2082240;28;20057;-58
2023/11/07 01:55:01;;;;;;;1.15;0.50;;;;;;;4.15;nan;95688.44;2090982;28;20052;-58
2023/11/07 01:56:03;;;;;;;1.30;0.60;;;;;;;4.12;nan;95685.97;2082449;28;20470;-58
2023/11/07 01:57:04;;;;;;;0.38;0.30;;;;;;;4.14;nan;95688.47;2074045;28;20057;-57
2023/11/07 01:58:05;;;;;;;1.90;0.50;;;;;;;4.12;nan;95685.13;2082258;28;20056;-59
2023/11/07 01:59:07;;;;;;;1.27;0.47;;;;;;;4.12;nan;95679.97;2073767;28;20054;-57
2023/11/07 02:00:10;;;;;;;0.70;0.40;;;;;;;4.09;nan;95686.03;2066760;28;20368;-58
2023/11/07 02:01:13;;;;;;;0.90;0.38;;;;;;;4.14;nan;95689.34;2075470;28;20057;-60
2023/11/07 02:02:18;;;;;;;0.73;0.40;;;;;;;4.14;nan;95681.63;2090442;28;20049;-59
2023/11/07 02:03:21;;;;;;;0.60;0.25;;;;;;;4.10;nan;95677.44;2074470;28;20057;-60
2023/11/07 02:04:23;;;;;;;2.00;0.60;;;;;;;4.15;nan;95685.88;2075489;28;20061;-59
2023/11/07 02:05:24;;;;;;;1.58;0.43;;;;;;;4.14;nan;95679.06;2082322;28;20049;-58
2023/11/07 02:06:26;;;;;;;1.75;0.40;;;;;;;4.12;nan;95680.81;2074306;28;20041;-58
2023/11/07 02:07:27;;;;;;;2.00;0.50;;;;;;;4.14;nan;95679.06;2090592;28;20540;-58
2023/11/07 02:08:28;;;;;;;1.88;0.40;;;;;;;4.13;nan;95677.34;2090196;28;20539;-57
2023/11/07 02:09:29;;;;;;;0.50;0.32;;;;;;;4.13;nan;95669.63;2090494;28;20052;-58
2023/11/07 02:10:31;;;;;;;1.42;0.50;;;;;;;4.13;nan;95664.50;2090365;28;20041;-57
2023/11/07 02:11:32;;;;;;;0.93;0.40;;;;;;;4.13;nan;95673.94;2090363;28;20429;-58
2023/11/07 02:12:33;;;;;;;1.65;0.57;;;;;;;4.07;nan;95667.25;2090668;28;20049;-59
2023/11/07 02:13:34;;;;;;;2.20;0.40;;;;;;;4.10;nan;95671.47;2082517;28;20050;-58
2023/11/07 02:14:36;;;;;;;0.30;0.20;;;;;;;4.05;nan;95666.44;2082043;28;20402;-60
2023/11/07 02:15:38;;;;;;;1.30;0.50;;;;;;;4.06;nan;95670.69;2090478;28;20045;-60
2023/11/07 02:16:39;;;;;;;0.65;0.40;;;;;;;4.02;nan;95669.09;2090009;28;20048;-59
2023/11/07 02:17:40;;;;;;;0.95;0.50;;;;;;;3.96;nan;95664.97;2090101;28;20052;-59
2023/11/07 02:18:41;;;;;;;2.17;0.60;;;;;;;3.95;nan;95665.81;2090595;28;20033;-57
2023/11/07 02:19:42;;;;;;;1.23;0.50;;;;;;;3.93;nan;95659.06;2091063;28;20037;-58
2023/11/07 02:20:45;;;;;;;0.38;0.30;;;;;;;3.87;nan;95654.91;2090721;28;20060;-58
2023/11/07 02:21:46;;;;;;;1.50;0.40;;;;;;;3.85;nan;95659.28;2091031;28;20051;-60
2023/11/07 02:22:48;;;;;;;1.52;0.52;;;;;;;3.81;nan;95652.50;2089901;28;20053;-61
2023/11/07 02:23:50;;;;;;;0.70;0.40;;;;;;;3.90;nan;95660.00;2082438;28;20375;-59
2023/11/07 02:24:53;;;;;;;0.70;0.50;;;;;;;3.88;nan;95661.75;2090400;28;20045;-60
2023/11/07 02:25:54;;;;;;;1.25;0.50;;;;;;;3.86;nan;95657.53;2090005;28;20532;-60
2023/11/07 02:26:56;;;;;;;0.98;0.45;;;;;;;3.87;nan;95652.34;2090205;28;20053;-59
2023/11/07 02:27:57;;;;;;;0.77;0.45;;;;;;;3.88;nan;95653.22;2090576;28;20045;-58
2023/11/07 02:28:58;;;;;;;0.50;0.40;;;;;;;3.85;nan;95648.13;2090907;28;20059;-58
2023/11/07 02:29:59;;;;;;;1.38;0.50;;;;;;;3.84;nan;95651.59;2090799;28;20053;-59
2023/11/07 02:31:00;;;;;;;1.30;0.50;;;;;;;3.86;nan;95642.97;2090919;28;20087;-58
2023/11/07 02:32:02;;;;;;;0.55;0.45;;;;;;;3.85;nan;95646.44;2091101;28;20462;-58
2023/11/07 02:33:05;;;;;;;0.70;0.50;;;;;;;3.85;nan;95650.69;2090940;28;20056;-57
2023/11/07 02:34:06;;;;;;;1.75;0.40;;;;;;;3.84;nan;95649.03;2090954;28;20072;-58
2023/11/07 02:35:13;;;;;;;1.42;0.30;;;;;;;3.82;nan;95643.06;2090820;28;20057;-58
2023/11/07 02:36:14;;;;;;;0.73;0.52;;;;;;;3.78;nan;95652.59;2090492;28;20056;-57
2023/11/07 02:37:16;;;;;;;1.58;0.40;;;;;;;3.73;nan;95652.72;2090710;28;20053;-59
2023/11/07 02:38:19;;;;;;;1.00;0.50;;;;;;;3.72;nan;95655.34;2090958;28;20037;-57
2023/11/07 02:39:21;;;;;;;0.90;0.40;;;;;;;3.70;nan;95660.50;2090636;28;20048;-59
2023/11/07 02:40:23;;;;;;;0.40;0.30;;;;;;;3.68;nan;95657.13;2091110;28;20045;-58
2023/11/07 02:41:24;;;;;;;1.98;0.65;;;;;;;3.64;nan;95665.81;2090811;28;20053;-59
2023/11/07 02:42:28;;;;;;;1.35;0.40;;;;;;;3.54;nan;95659.19;2090860;28;20382;-57
2023/11/07 02:43:29;;;;;;;1.13;0.50;;;;;;;3.53;nan;95662.66;2090882;28;20040;-58
2023/11/07 02:44:31;;;;;;;1.92;0.70;;;;;;;3.51;nan;95660.13;2090666;28;20052;-58
2023/11/07 02:45:36;;;;;;;1.75;0.68;;;;;;;3.57;nan;95653.16;2090660;28;20052;-58
2023/11/07 02:46:40;;;;;;;2.67;0.60;;;;;;;3.52;nan;95651.53;2091045;28;20348;-59
2023/11/07 02:47:41;;;;;;;3.80;0.52;;;;;;;3.52;nan;95664.38;2090830;28;20048;-60
2023/11/07 02:48:42;;;;;;;3.42;0.55;;;;;;;3.53;nan;95658.38;2090080;28;20041;-60
2023/11/07 02:49:43;;;;;;;1.13;0.60;;;;;;;3.52;nan;95661.78;2089732;28;20033;-60
2023/11/07 02:50:44;;;;;;;0.98;0.60;;;;;;;3.53;nan;95657.53;2089533;28;20052;-59
2023/11/07 02:51:45;;;;;;;1.73;0.55;;;;;;;3.50;nan;95658.44;2089729;28;20036;-60
2023/11/07 02:52:46;;;;;;;1.38;0.50;;;;;;;3.53;nan;95657.53;2089574;28;20045;-59
2023/11/07 02:53:47;;;;;;;2.22;0.63;;;;;;;3.52;nan;95656.66;2090085;28;20055;-59
2023/11/07 02:54:48;;;;;;;1.20;0.38;;;;;;;3.51;nan;95656.72;2090238;28;20036;-59
2023/11/07 02:55:50;;;;;;;0.50;0.32;;;;;;;3.52;nan;95656.66;2088810;28;20524;-57
2023/11/07 02:56:51;;;;;;;1.20;0.60;;;;;;;3.49;nan;95659.31;2090242;28;20049;-59
2023/11/07 02:57:52;;;;;;;1.40;0.57;;;;;;;3.46;nan;95650.84;2090147;28;20421;-60
2023/11/07 02:58:53;;;;;;;2.15;0.70;;;;;;;3.46;nan;95653.41;2089941;28;20059;-60
2023/11/07 02:59:54;;;;;;;1.48;0.80;;;;;;;3.48;nan;95652.50;2090076;28;20087;-58
2023/11/07 03:00:56;;;;;;;0.98;0.40;;;;;;;3.47;nan;95653.38;2090192;28;20045;-58
2023/11/07 03:01:57;;;;;;;1.88;0.70;;;;;;;3.43;nan;95645.78;2082305;28;20425;-60
2023/11/07 03:02:58;;;;;;;0.45;0.45;;;;;;;3.49;nan;95658.47;2082057;28;20049;-58
2023/11/07 03:03:59;;;;;;;1.00;0.45;;;;;;;3.48;nan;95662.78;2090261;28;20404;-58
2023/11/07 03:05:00;;;;;;;0.70;0.43;;;;;;;3.38;nan;95647.63;2090738;28;20045;-58
2023/11/07 03:06:02;;;;;;;1.65;0.40;;;;;;;3.43;nan;95661.19;2090537;28;20040;-58
2023/11/07 03:07:03;;;;;;;1.98;0.60;;;;;;;3.46;nan;95661.13;2090514;28;20056;-57
2023/11/07 03:08:06;;;;;;;1.75;0.60;;;;;;;3.45;nan;95654.31;2090652;28;20091;-58
2023/11/07 03:09:07;;;;;;;1.42;0.50;;;;;;;3.38;nan;95658.75;2090620;28;20044;-57
2023/11/07 03:10:08;;;;;;;0.80;0.50;;;;;;;3.44;nan;95657.75;2090002;28;20057;-59
2023/11/07 03:11:10;;;;;;;0.80;0.50;;;;;;;3.47;nan;95653.38;2089921;28;20056;-58
2023/11/07 03:12:12;;;;;;;0.85;0.50;;;;;;;3.45;nan;95657.72;2089860;28;20053;-59
2023/11/07 03:13:13;;;;;;;0.50;0.43;;;;;;;3.47;nan;95662.78;2089961;28;20501;-57
2023/11/07 03:14:14;;;;;;;0.80;0.40;;;;;;;3.44;nan;95662.88;2090402;28;20060;-59
2023/11/07 03:15:15;;;;;;;0.82;0.55;;;;;;;3.41;nan;95653.53;2090205;28;20406;-57
2023/11/07 03:16:17;;;;;;;0.85;0.35;;;;;;;3.46;nan;95666.25;2089332;28;20068;-58
2023/11/07 03:17:18;;;;;;;1.05;0.50;;;;;;;3.41;nan;95660.38;2089412;28;20052;-57
2023/11/07 03:18:19;;;;;;;0.52;0.40;;;;;;;3.40;nan;95667.25;2081620;28;20054;-57
2023/11/07 03:19:20;;;;;;;2.30;0.50;;;;;;;3.32;nan;95658.91;2089990;28;20048;-57
2023/11/07 03:20:21;;;;;;;0.68;0.47;;;;;;;3.25;nan;95663.31;2090219;28;20049;-59
2023/11/07 03:21:23;;;;;;;2.63;0.60;;;;;;;3.27;nan;95656.44;2090096;28;20504;-58
2023/11/07 03:22:26;;;;;;;1.00;0.52;;;;;;;3.24;nan;95660.81;2090609;28;20048;-58
2023/11/07 03:23:27;;;;;;;1.10;0.52;;;;;;;3.16;nan;95655.84;2090168;28;20105;-60
2023/11/07 03:24:28;;;;;;;1.00;0.52;;;;;;;3.12;nan;95658.50;2090707;28;20436;-60
2023/11/07 03:25:29;;;;;;;0.50;0.40;;;;;;;3.12;nan;95661.09;2089318;28;20513;-60
2023/11/07 03:26:30;;;;;;;1.13;0.70;;;;;;;3.11;nan;95662.81;2090039;28;20060;-58
2023/11/07 03:27:31;;;;;;;0.73;0.47;;;;;;;3.07;nan;95661.19;2090080;28;20354;-59
2023/11/07 03:28:32;;;;;;;0.75;0.40;;;;;;;3.03;nan;95662.97;2081678;28;20037;-59
2023/11/07 03:29:34;;;;;;;0.82;0.50;;;;;;;3.05;nan;95658.66;2090021;28;20071;-60
2023/11/07 03:30:35;;;;;;;2.38;0.63;;;;;;;3.02;nan;95657.88;2090562;28;20397;-59
2023/11/07 03:31:36;;;;;;;1.20;0.75;;;;;;;2.97;nan;95655.44;2090809;28;20064;-59
2023/11/07 03:32:38;;;;;;;5.03;0.85;;;;;;;2.98;nan;95662.25;2090173;28;20048;-59
2023/11/07 03:33:39;;;;;;;2.20;0.60;;;;;;;3.00;nan;95646.84;2090574;28;20055;-59
2023/11/07 03:34:40;;;;;;;1.02;0.70;;;;;;;3.08;nan;95656.03;2090392;28;20374;-60
2023/11/07 03:35:42;;;;;;;0.70;0.50;;;;;;;3.08;nan;95657.75;2090329;28;20083;-59
2023/11/07 03:36:43;;;;;;;0.85;0.60;;;;;;;3.01;nan;95667.31;2090615;28;20377;-60
2023/11/07 03:37:44;;;;;;;0.93;0.65;;;;;;;2.96;nan;95663.16;2090408;28;20044;-59
2023/11/07 03:38:46;;;;;;;1.92;0.77;;;;;;;2.92;nan;95661.56;2089414;28;20056;-59
2023/11/07 03:39:47;;;;;;;1.05;0.60;;;;;;;2.92;nan;95664.97;2089207;28;20061;-60
2023/11/07 03:40:48;;;;;;;1.52;0.60;;;;;;;2.91;nan;95664.97;2089859;28;20049;-59
2023/11/07 03:41:49;;;;;;;1.10;0.80;;;;;;;2.91;nan;95667.53;2073684;28;20061;-59
2023/11/07 03:42:50;;;;;;;1.45;0.90;;;;;;;2.92;nan;95667.53;2081616;28;20038;-60
2023/11/07 03:43:52;;;;;;;1.42;0.77;;;;;;;2.87;nan;95667.63;2089955;28;20071;-59
2023/11/07 03:44:53;;;;;;;0.88;0.68;;;;;;;2.85;nan;95659.09;2090400;28;20040;-59
2023/11/07 03:45:54;;;;;;;2.13;0.68;;;;;;;2.83;nan;95666.00;2090319;28;20053;-60
2023/11/07 03:46:55;;;;;;;1.20;0.65;;;;;;;2.91;nan;95662.41;2090443;28;20048;-60
2023/11/07 03:47:56;;;;;;;2.15;0.88;;;;;;;2.91;nan;95667.53;2090456;28;20033;-59
2023/11/07 03:48:57;;;;;;;1.50;0.73;;;;;;;2.86;nan;95668.50;2090063;28;20056;-59
2023/11/07 03:49:58;;;;;;;1.48;0.80;;;;;;;2.86;nan;95665.06;2090512;28;20047;-59
2023/11/07 03:50:59;;;;;;;1.38;0.70;;;;;;;2.83;nan;95666.00;2090197;28;20045;-59
2023/11/07 03:52:00;;;;;;;1.15;0.70;;;;;;;2.84;nan;95667.69;2090385;28;20037;-60
2023/11/07 03:53:01;;;;;;;1.67;0.95;;;;;;;2.87;nan;95667.63;2090220;28;20381;-60
2023/11/07 03:54:03;;;;;;;0.77;0.45;;;;;;;2.84;nan;95666.84;2090330;28;20055;-59
2023/11/07 03:55:04;;;;;;;1.15;0.68;;;;;;;2.81;nan;95667.75;2090086;28;20045;-59
2023/11/07 03:56:06;;;;;;;1.23;0.77;;;;;;;2.80;nan;95666.06;2090288;28;20036;-59
2023/11/07 03:57:07;;;;;;;3.00;0.70;;;;;;;2.79;nan;95674.63;2089929;28;20041;-60
2023/11/07 03:58:08;;;;;;;2.08;0.70;;;;;;;2.76;nan;95673.88;2090390;28;20049;-59
2023/11/07 03:59:09;;;;;;;1.05;0.55;;;;;;;2.73;nan;95676.50;2090332;28;20067;-59
2023/11/07 04:00:11;;;;;;;1.30;0.82;;;;;;;2.67;nan;95677.47;2090206;28;20052;-60
2023/11/07 04:01:12;;;;;;;1.40;0.73;;;;;;;2.63;nan;95670.72;2090034;28;20056;-60
2023/11/07 04:02:13;;;;;;;0.95;0.60;;;;;;;2.61;nan;95677.59;2090183;28;20060;-58
2023/11/07 04:03:14;;;;;;;1.35;0.85;;;;;;;2.62;nan;95676.75;2090167;28;20404;-59
2023/11/07 04:04:15;;;;;;;1.58;0.90;;;;;;;2.58;nan;95675.94;2090253;28;20063;-59
2023/11/07 04:05:16;;;;;;;2.28;0.80;;;;;;;2.68;nan;95680.88;2090183;28;20051;-59
2023/11/07 04:06:17;;;;;;;1.45;0.60;;;;;;;2.60;nan;95673.34;2090138;28;20048;-59
2023/11/07 04:07:18;;;;;;;1.30;0.80;;;;;;;2.58;nan;95678.50;2090064;28;20063;-59
2023/11/07 04:08:19;;;;;;;2.13;0.70;;;;;;;2.54;nan;95679.47;2090158;28;20068;-59
2023/11/07 04:09:21;;;;;;;2.55;0.85;;;;;;;2.52;nan;95680.38;2090275;28;20065;-59
2023/11/07 04:10:22;;;;;;;2.20;0.77;;;;;;;2.53;nan;95688.00;2090164;28;20045;-59
2023/11/07 04:11:23;;;;;;;1.10;0.80;;;;;;;2.55;nan;95678.56;2090220;28;20397;-59
2023/11/07 04:12:24;;;;;;;1.52;1.00;;;;;;;2.58;nan;95688.75;2090279;28;20060;-58
2023/11/07 04:13:27;;;;;;;2.40;0.82;;;;;;;2.57;nan;95683.69;2090402;28;20045;-59
2023/11/07 04:14:28;;;;;;;2.20;0.80;;;;;;;2.65;nan;95686.91;2090005;28;20061;-59
2023/11/07 04:15:29;;;;;;;1.40;0.90;;;;;;;2.67;nan;95686.88;2090267;28;20064;-59
2023/11/07 04:16:30;;;;;;;1.10;0.65;;;;;;;2.63;nan;95692.06;2090048;28;20044;-59
2023/11/07 04:17:33;;;;;;;1.38;0.80;;;;;;;2.64;nan;95693.75;2090122;28;20052;-60
2023/11/07 04:18:34;;;;;;;2.20;0.65;;;;;;;2.65;nan;95695.44;2090137;28;20040;-59
2023/11/07 04:19:35;;;;;;;2.35;0.90;;;;;;;2.74;nan;95691.84;2090278;28;20041;-59
2023/11/07 04:20:37;;;;;;;1.35;0.90;;;;;;;2.79;nan;95691.75;2090157;28;20037;-60
2023/11/07 04:21:38;;;;;;;1.33;0.77;;;;;;;2.82;nan;95689.94;2090231;28;20045;-60
2023/11/07 04:22:39;;;;;;;1.23;0.80;;;;;;;2.86;nan;95686.47;2089743;28;20041;-59
2023/11/07 04:23:40;;;;;;;1.48;0.82;;;;;;;2.96;nan;95688.81;2089735;28;20056;-59
2023/11/07 04:24:43;;;;;;;1.65;0.93;;;;;;;3.01;nan;95684.41;2081478;28;20045;-59
2023/11/07 04:25:46;;;;;;;1.27;0.80;;;;;;;3.06;nan;95687.72;2089818;28;20049;-58
2023/11/07 04:26:47;;;;;;;1.05;0.73;;;;;;;3.14;nan;95687.56;2090368;28;20041;-60
2023/11/07 04:27:48;;;;;;;2.08;0.82;;;;;;;3.19;nan;95690.84;2090437;28;20037;-59
2023/11/07 04:28:49;;;;;;;1.52;0.80;;;;;;;3.24;nan;95687.31;2090695;28;20069;-60
2023/11/07 04:29:50;;;;;;;1.85;0.75;;;;;;;3.28;nan;95686.34;2090196;28;20488;-59
2023/11/07 04:30:52;;;;;;;1.55;0.70;;;;;;;3.33;nan;95677.69;2090161;28;20041;-59
2023/11/07 04:31:53;;;;;;;2.55;0.80;;;;;;;3.42;nan;95690.31;2090336;28;20477;-59
2023/11/07 04:32:55;;;;;;;1.00;0.70;;;;;;;3.49;nan;95692.69;2090017;28;20056;-59
2023/11/07 04:33:56;;;;;;;2.67;0.73;;;;;;;3.54;nan;95692.59;2089838;28;20060;-58
2023/11/07 04:34:57;;;;;;;1.02;0.60;;;;;;;3.57;nan;95689.09;2090381;28;20043;-59
2023/11/07 04:35:58;;;;;;;2.40;0.63;;;;;;;3.58;nan;95689.03;2090084;28;20049;-59
2023/11/07 04:36:59;;;;;;;1.42;0.75;;;;;;;3.60;nan;95687.28;2090373;28;20067;-58
2023/11/07 04:38:00;;;;;;;1.10;0.63;;;;;;;3.67;nan;95683.69;2089967;28;20056;-60
2023/11/07 04:39:01;;;;;;;0.70;0.47;;;;;;;3.74;nan;95682.66;2089996;28;20037;-60
2023/11/07 04:40:04;;;;;;;1.88;0.73;;;;;;;3.84;nan;95679.84;2090092;28;20120;-61
2023/11/07 04:41:05;;;;;;;1.30;0.60;;;;;;;3.87;nan;95678.03;2090090;28;20049;-59
2023/11/07 04:42:07;;;;;;;0.98;0.63;;;;;;;3.86;nan;95680.66;2090217;28;20055;-59
2023/11/07 04:43:08;;;;;;;1.77;0.60;;;;;;;3.83;nan;95681.56;2090198;28;20051;-60
2023/11/07 04:44:11;;;;;;;5.82;0.90;;;;;;;3.83;nan;95680.75;2090226;28;20053;-59
2023/11/07 04:45:12;;;;;;;1.75;0.70;;;;;;;3.76;nan;95664.63;2090010;28;20504;-60
2023/11/07 04:46:13;;;;;;;0.95;0.60;;;;;;;3.77;nan;95668.91;2090036;28;20075;-59
2023/11/07 04:47:16;;;;;;;2.15;0.60;;;;;;;3.79;nan;95677.38;2090028;28;20044;-59
2023/11/07 04:48:19;;;;;;;1.80;0.90;;;;;;;3.78;nan;95672.31;2089984;28;20045;-59
2023/11/07 04:49:20;;;;;;;1.38;0.80;;;;;;;3.75;nan;95674.06;2090421;28;20045;-59
2023/11/07 04:50:22;;;;;;;1.05;0.70;;;;;;;3.75;nan;95668.09;2090015;28;20400;-60
2023/11/07 04:51:23;;;;;;;1.25;0.90;;;;;;;3.75;nan;95679.22;2090048;28;20061;-60
2023/11/07 04:52:24;;;;;;;1.70;0.80;;;;;;;3.75;nan;95673.22;2089993;28;20049;-59
2023/11/07 04:53:29;;;;;;;1.33;0.73;;;;;;;3.70;nan;95675.06;2089898;28;20052;-59
2023/11/07 04:54:30;;;;;;;1.23;0.63;;;;;;;3.69;nan;95674.22;2089992;28;20055;-59
2023/11/07 04:55:31;;;;;;;2.13;0.95;;;;;;;3.68;nan;95684.53;2090316;28;20049;-59
2023/11/07 04:56:32;;;;;;;2.22;0.98;;;;;;;3.65;nan;95672.59;2089781;28;20056;-59
2023/11/07 04:57:34;;;;;;;1.80;0.98;;;;;;;3.67;nan;95681.13;2090113;28;20055;-60
2023/11/07 04:58:36;;;;;;;2.88;1.10;;;;;;;3.64;nan;95680.38;2090286;28;20051;-59
2023/11/07 04:59:37;;;;;;;2.40;1.00;;;;;;;3.65;nan;95671.78;2089853;28;20052;-60